sensor_id;sensor_type;location;lat;lon;timestamp;P1;durP1;ratioP1;P2;durP2;ratioP2
11823;SDS011;5969;50.780;7.726;2023-11-19T00:00:18;1.27;;;0.90;;
11823;SDS011;5969;50.780;7.726;2023-11-19T00:02:45;1.10;;;1.00;;
11823;SDS011;5969;50.780;7.726;2023-11-19T00:05:12;0.75;;;0.75;;
11823;SDS011;5969;50.780;7.726;2023-11-19T00:07:41;1.00;;;0.82;;
11823;SDS011;5969;50.780;7.726;2023-11-19T00:10:09;1.20;;;0.98;;
11823;SDS011;5969;50.780;7.726;2023-11-19T00:12:36;2.78;;;1.05;;
11823;SDS011;5969;50.780;7.726;2023-11-19T00:15:05;2.72;;;1.65;;
11823;SDS011;5969;50.780;7.726;2023-11-19T00:17:36;0.90;;;0.90;;
11823;SDS011;5969;50.780;7.726;2023-11-19T00:20:04;1.98;;;1.00;;
11823;SDS011;5969;50.780;7.726;2023-11-19T00:22:32;1.52;;;0.90;;
11823;SDS011;5969;50.780;7.726;2023-11-19T00:25:01;0.82;;;0.80;;
11823;SDS011;5969;50.780;7.726;2023-11-19T00:27:28;1.00;;;0.90;;
11823;SDS011;5969;50.780;7.726;2023-11-19T00:29:55;1.45;;;1.10;;
11823;SDS011;5969;50.780;7.726;2023-11-19T00:32:23;0.88;;;0.88;;
11823;SDS011;5969;50.780;7.726;2023-11-19T00:34:50;1.20;;;1.10;;
11823;SDS011;5969;50.780;7.726;2023-11-19T00:37:17;0.95;;;0.82;;
11823;SDS011;5969;50.780;7.726;2023-11-19T00:39:44;1.40;;;1.05;;
11823;SDS011;5969;50.780;7.726;2023-11-19T00:42:13;1.83;;;0.80;;
11823;SDS011;5969;50.780;7.726;2023-11-19T00:44:40;2.50;;;1.08;;
11823;SDS011;5969;50.780;7.726;2023-11-19T00:47:07;0.90;;;0.80;;
11823;SDS011;5969;50.780;7.726;2023-11-19T00:49:34;1.58;;;0.90;;
11823;SDS011;5969;50.780;7.726;2023-11-19T00:52:01;1.10;;;1.00;;
11823;SDS011;5969;50.780;7.726;2023-11-19T00:54:28;1.10;;;0.90;;
11823;SDS011;5969;50.780;7.726;2023-11-19T00:56:56;1.20;;;1.10;;
11823;SDS011;5969;50.780;7.726;2023-11-19T00:59:24;2.95;;;0.98;;
11823;SDS011;5969;50.780;7.726;2023-11-19T01:01:51;0.98;;;0.90;;
11823;SDS011;5969;50.780;7.726;2023-11-19T01:04:18;1.10;;;1.00;;
11823;SDS011;5969;50.780;7.726;2023-11-19T01:06:45;1.10;;;1.00;;
11823;SDS011;5969;50.780;7.726;2023-11-19T01:09:12;2.35;;;0.80;;
11823;SDS011;5969;50.780;7.726;2023-11-19T01:11:40;1.70;;;0.90;;
11823;SDS011;5969;50.780;7.726;2023-11-19T01:14:07;0.90;;;0.77;;
11823;SDS011;5969;50.780;7.726;2023-11-19T01:16:35;1.27;;;0.98;;
11823;SDS011;5969;50.780;7.726;2023-11-19T01:19:02;0.80;;;0.80;;
11823;SDS011;5969;50.780;7.726;2023-11-19T01:21:30;1.70;;;0.90;;
11823;SDS011;5969;50.780;7.726;2023-11-19T01:23:57;1.00;;;0.90;;
11823;SDS011;5969;50.780;7.726;2023-11-19T01:26:24;1.20;;;0.80;;
11823;SDS011;5969;50.780;7.726;2023-11-19T01:28:52;0.70;;;0.70;;
11823;SDS011;5969;50.780;7.726;2023-11-19T01:31:19;1.23;;;0.98;;
11823;SDS011;5969;50.780;7.726;2023-11-19T01:33:47;0.70;;;0.70;;
11823;SDS011;5969;50.780;7.726;2023-11-19T01:36:15;1.05;;;0.90;;
11823;SDS011;5969;50.780;7.726;2023-11-19T01:38:42;0.80;;;0.75;;
11823;SDS011;5969;50.780;7.726;2023-11-19T01:41:09;0.75;;;0.75;;
11823;SDS011;5969;50.780;7.726;2023-11-19T01:43:37;1.88;;;0.70;;
11823;SDS011;5969;50.780;7.726;2023-11-19T01:46:06;1.38;;;1.00;;
11823;SDS011;5969;50.780;7.726;2023-11-19T01:48:34;0.63;;;0.63;;
11823;SDS011;5969;50.780;7.726;2023-11-19T01:51:04;0.70;;;0.70;;
11823;SDS011;5969;50.780;7.726;2023-11-19T01:53:31;0.65;;;0.65;;
11823;SDS011;5969;50.780;7.726;2023-11-19T01:55:59;0.80;;;0.80;;
11823;SDS011;5969;50.780;7.726;2023-11-19T01:58:26;0.77;;;0.70;;
11823;SDS011;5969;50.780;7.726;2023-11-19T02:00:55;1.45;;;0.90;;
11823;SDS011;5969;50.780;7.726;2023-11-19T02:03:22;0.90;;;0.70;;
11823;SDS011;5969;50.780;7.726;2023-11-19T02:05:51;1.10;;;0.85;;
11823;SDS011;5969;50.780;7.726;2023-11-19T02:08:19;1.77;;;0.77;;
11823;SDS011;5969;50.780;7.726;2023-11-19T02:10:46;1.05;;;0.80;;
11823;SDS011;5969;50.780;7.726;2023-11-19T02:13:13;0.80;;;0.70;;
11823;SDS011;5969;50.780;7.726;2023-11-19T02:15:41;2.10;;;0.70;;
11823;SDS011;5969;50.780;7.726;2023-11-19T02:18:18;0.60;;;0.60;;
11823;SDS011;5969;50.780;7.726;2023-11-19T02:20:46;0.73;;;0.65;;
11823;SDS011;5969;50.780;7.726;2023-11-19T02:23:14;0.80;;;0.73;;
11823;SDS011;5969;50.780;7.726;2023-11-19T02:25:43;0.80;;;0.80;;
11823;SDS011;5969;50.780;7.726;2023-11-19T02:28:13;1.15;;;1.00;;
11823;SDS011;5969;50.780;7.726;2023-11-19T02:30:40;0.80;;;0.65;;
11823;SDS011;5969;50.780;7.726;2023-11-19T02:33:07;2.25;;;0.80;;
11823;SDS011;5969;50.780;7.726;2023-11-19T02:35:34;0.65;;;0.65;;
11823;SDS011;5969;50.780;7.726;2023-11-19T02:38:01;1.20;;;0.93;;
11823;SDS011;5969;50.780;7.726;2023-11-19T02:40:31;1.40;;;0.80;;
11823;SDS011;5969;50.780;7.726;2023-11-19T02:43:01;0.80;;;0.70;;
11823;SDS011;5969;50.780;7.726;2023-11-19T02:45:31;0.80;;;0.70;;
11823;SDS011;5969;50.780;7.726;2023-11-19T02:47:58;1.65;;;0.77;;
11823;SDS011;5969;50.780;7.726;2023-11-19T02:50:34;1.00;;;0.70;;
11823;SDS011;5969;50.780;7.726;2023-11-19T02:53:02;1.73;;;0.70;;
11823;SDS011;5969;50.780;7.726;2023-11-19T02:55:29;0.80;;;0.70;;
11823;SDS011;5969;50.780;7.726;2023-11-19T02:58:01;1.85;;;0.80;;
11823;SDS011;5969;50.780;7.726;2023-11-19T03:00:34;0.70;;;0.70;;
11823;SDS011;5969;50.780;7.726;2023-11-19T03:03:07;1.48;;;0.80;;
11823;SDS011;5969;50.780;7.726;2023-11-19T03:05:51;1.60;;;0.80;;
11823;SDS011;5969;50.780;7.726;2023-11-19T03:08:40;1.92;;;0.65;;
11823;SDS011;5969;50.780;7.726;2023-11-19T03:11:08;2.13;;;0.70;;
11823;SDS011;5969;50.780;7.726;2023-11-19T03:13:36;0.65;;;0.63;;
11823;SDS011;5969;50.780;7.726;2023-11-19T03:16:05;0.80;;;0.70;;
11823;SDS011;5969;50.780;7.726;2023-11-19T03:18:32;0.90;;;0.70;;
11823;SDS011;5969;50.780;7.726;2023-11-19T03:20:59;0.95;;;0.60;;
11823;SDS011;5969;50.780;7.726;2023-11-19T03:23:26;0.77;;;0.77;;
11823;SDS011;5969;50.780;7.726;2023-11-19T03:25:53;0.70;;;0.70;;
11823;SDS011;5969;50.780;7.726;2023-11-19T03:28:22;1.10;;;0.70;;
11823;SDS011;5969;50.780;7.726;2023-11-19T03:30:49;0.73;;;0.70;;
11823;SDS011;5969;50.780;7.726;2023-11-19T03:33:19;0.60;;;0.60;;
11823;SDS011;5969;50.780;7.726;2023-11-19T03:35:46;1.05;;;0.70;;
11823;SDS011;5969;50.780;7.726;2023-11-19T03:38:14;0.73;;;0.73;;
11823;SDS011;5969;50.780;7.726;2023-11-19T03:40:41;0.70;;;0.70;;
11823;SDS011;5969;50.780;7.726;2023-11-19T03:43:20;2.15;;;0.63;;
11823;SDS011;5969;50.780;7.726;2023-11-19T03:45:47;2.05;;;0.80;;
11823;SDS011;5969;50.780;7.726;2023-11-19T03:48:14;1.38;;;0.75;;
11823;SDS011;5969;50.780;7.726;2023-11-19T03:50:43;0.70;;;0.70;;
11823;SDS011;5969;50.780;7.726;2023-11-19T03:53:11;0.82;;;0.77;;
11823;SDS011;5969;50.780;7.726;2023-11-19T03:55:38;0.93;;;0.70;;
11823;SDS011;5969;50.780;7.726;2023-11-19T03:58:06;1.73;;;0.80;;
11823;SDS011;5969;50.780;7.726;2023-11-19T04:00:33;2.17;;;0.90;;
11823;SDS011;5969;50.780;7.726;2023-11-19T04:03:00;1.80;;;1.00;;
11823;SDS011;5969;50.780;7.726;2023-11-19T04:05:42;0.70;;;0.70;;
11823;SDS011;5969;50.780;7.726;2023-11-19T04:08:12;3.13;;;0.90;;
11823;SDS011;5969;50.780;7.726;2023-11-19T04:10:40;0.90;;;0.73;;
11823;SDS011;5969;50.780;7.726;2023-11-19T04:13:07;2.10;;;0.90;;
11823;SDS011;5969;50.780;7.726;2023-11-19T04:15:34;1.98;;;0.93;;
11823;SDS011;5969;50.780;7.726;2023-11-19T04:18:01;1.52;;;0.80;;
11823;SDS011;5969;50.780;7.726;2023-11-19T04:20:28;1.75;;;0.80;;
11823;SDS011;5969;50.780;7.726;2023-11-19T04:22:56;1.75;;;0.90;;
11823;SDS011;5969;50.780;7.726;2023-11-19T04:25:27;0.77;;;0.75;;
11823;SDS011;5969;50.780;7.726;2023-11-19T04:27:54;1.38;;;0.90;;
11823;SDS011;5969;50.780;7.726;2023-11-19T04:30:21;1.25;;;0.80;;
11823;SDS011;5969;50.780;7.726;2023-11-19T04:32:48;1.35;;;1.00;;
11823;SDS011;5969;50.780;7.726;2023-11-19T04:35:15;0.80;;;0.77;;
11823;SDS011;5969;50.780;7.726;2023-11-19T04:37:44;1.77;;;0.90;;
11823;SDS011;5969;50.780;7.726;2023-11-19T04:40:12;0.95;;;0.68;;
11823;SDS011;5969;50.780;7.726;2023-11-19T04:42:41;0.80;;;0.77;;
11823;SDS011;5969;50.780;7.726;2023-11-19T04:45:08;2.20;;;0.88;;
11823;SDS011;5969;50.780;7.726;2023-11-19T04:47:36;1.15;;;0.82;;
11823;SDS011;5969;50.780;7.726;2023-11-19T04:50:03;1.67;;;0.70;;
11823;SDS011;5969;50.780;7.726;2023-11-19T04:52:30;1.25;;;0.60;;
11823;SDS011;5969;50.780;7.726;2023-11-19T04:54:57;1.02;;;0.60;;
11823;SDS011;5969;50.780;7.726;2023-11-19T04:57:24;1.08;;;0.80;;
11823;SDS011;5969;50.780;7.726;2023-11-19T04:59:53;1.40;;;0.90;;
11823;SDS011;5969;50.780;7.726;2023-11-19T05:02:20;2.40;;;1.10;;
11823;SDS011;5969;50.780;7.726;2023-11-19T05:04:47;1.50;;;1.00;;
11823;SDS011;5969;50.780;7.726;2023-11-19T05:07:14;0.80;;;0.80;;
11823;SDS011;5969;50.780;7.726;2023-11-19T05:09:42;2.25;;;0.80;;
11823;SDS011;5969;50.780;7.726;2023-11-19T05:12:09;1.80;;;0.82;;
11823;SDS011;5969;50.780;7.726;2023-11-19T05:14:37;1.67;;;0.85;;
11823;SDS011;5969;50.780;7.726;2023-11-19T05:17:05;0.93;;;0.80;;
11823;SDS011;5969;50.780;7.726;2023-11-19T05:19:33;1.20;;;0.80;;
11823;SDS011;5969;50.780;7.726;2023-11-19T05:22:00;0.80;;;0.70;;
11823;SDS011;5969;50.780;7.726;2023-11-19T05:24:27;1.40;;;0.80;;
11823;SDS011;5969;50.780;7.726;2023-11-19T05:26:54;1.45;;;0.90;;
11823;SDS011;5969;50.780;7.726;2023-11-19T05:29:23;1.75;;;0.90;;
11823;SDS011;5969;50.780;7.726;2023-11-19T05:31:50;1.70;;;0.90;;
11823;SDS011;5969;50.780;7.726;2023-11-19T05:34:18;1.85;;;0.82;;
11823;SDS011;5969;50.780;7.726;2023-11-19T05:36:46;1.90;;;0.80;;
11823;SDS011;5969;50.780;7.726;2023-11-19T05:39:13;2.20;;;1.15;;
11823;SDS011;5969;50.780;7.726;2023-11-19T05:41:41;1.60;;;1.00;;
11823;SDS011;5969;50.780;7.726;2023-11-19T05:44:08;2.65;;;1.35;;
11823;SDS011;5969;50.780;7.726;2023-11-19T05:46:35;3.20;;;1.02;;
11823;SDS011;5969;50.780;7.726;2023-11-19T05:49:05;2.25;;;0.88;;
11823;SDS011;5969;50.780;7.726;2023-11-19T05:51:37;2.78;;;1.00;;
11823;SDS011;5969;50.780;7.726;2023-11-19T05:54:04;3.42;;;1.08;;
11823;SDS011;5969;50.780;7.726;2023-11-19T05:56:32;2.42;;;1.10;;
11823;SDS011;5969;50.780;7.726;2023-11-19T05:58:59;3.20;;;1.13;;
11823;SDS011;5969;50.780;7.726;2023-11-19T06:01:28;3.78;;;1.20;;
11823;SDS011;5969;50.780;7.726;2023-11-19T06:03:56;3.15;;;0.95;;
11823;SDS011;5969;50.780;7.726;2023-11-19T06:06:23;4.85;;;1.17;;
11823;SDS011;5969;50.780;7.726;2023-11-19T06:08:52;3.55;;;1.13;;
11823;SDS011;5969;50.780;7.726;2023-11-19T06:11:20;4.00;;;1.40;;
11823;SDS011;5969;50.780;7.726;2023-11-19T06:13:47;3.30;;;0.93;;
11823;SDS011;5969;50.780;7.726;2023-11-19T06:16:16;3.90;;;1.55;;
11823;SDS011;5969;50.780;7.726;2023-11-19T06:18:43;5.88;;;1.65;;
11823;SDS011;5969;50.780;7.726;2023-11-19T06:21:10;3.55;;;1.60;;
11823;SDS011;5969;50.780;7.726;2023-11-19T06:23:37;4.72;;;1.40;;
11823;SDS011;5969;50.780;7.726;2023-11-19T06:26:06;5.45;;;1.17;;
11823;SDS011;5969;50.780;7.726;2023-11-19T06:28:33;3.58;;;1.35;;
11823;SDS011;5969;50.780;7.726;2023-11-19T06:31:01;6.10;;;1.50;;
11823;SDS011;5969;50.780;7.726;2023-11-19T06:33:28;6.07;;;1.48;;
11823;SDS011;5969;50.780;7.726;2023-11-19T06:35:55;5.18;;;1.60;;
11823;SDS011;5969;50.780;7.726;2023-11-19T06:38:22;5.80;;;2.00;;
11823;SDS011;5969;50.780;7.726;2023-11-19T06:40:49;7.25;;;2.20;;
11823;SDS011;5969;50.780;7.726;2023-11-19T06:43:18;5.40;;;2.17;;
11823;SDS011;5969;50.780;7.726;2023-11-19T06:45:46;3.05;;;1.67;;
11823;SDS011;5969;50.780;7.726;2023-11-19T06:48:13;5.15;;;2.08;;
11823;SDS011;5969;50.780;7.726;2023-11-19T06:50:41;9.38;;;2.28;;
11823;SDS011;5969;50.780;7.726;2023-11-19T06:53:08;4.25;;;1.58;;
11823;SDS011;5969;50.780;7.726;2023-11-19T06:55:36;5.57;;;2.00;;
11823;SDS011;5969;50.780;7.726;2023-11-19T06:58:03;5.70;;;2.72;;
11823;SDS011;5969;50.780;7.726;2023-11-19T07:00:32;12.80;;;2.47;;
11823;SDS011;5969;50.780;7.726;2023-11-19T07:03:01;8.68;;;2.33;;
11823;SDS011;5969;50.780;7.726;2023-11-19T07:05:28;7.65;;;3.20;;
11823;SDS011;5969;50.780;7.726;2023-11-19T07:07:55;29.42;;;20.10;;
11823;SDS011;5969;50.780;7.726;2023-11-19T07:10:22;14.15;;;8.25;;
11823;SDS011;5969;50.780;7.726;2023-11-19T07:12:49;10.45;;;3.65;;
11823;SDS011;5969;50.780;7.726;2023-11-19T07:15:16;13.35;;;3.40;;
11823;SDS011;5969;50.780;7.726;2023-11-19T07:17:45;11.15;;;2.42;;
11823;SDS011;5969;50.780;7.726;2023-11-19T07:20:13;11.15;;;2.78;;
11823;SDS011;5969;50.780;7.726;2023-11-19T07:22:42;7.93;;;2.88;;
11823;SDS011;5969;50.780;7.726;2023-11-19T07:25:10;9.05;;;2.47;;
11823;SDS011;5969;50.780;7.726;2023-11-19T07:27:37;16.60;;;6.00;;
11823;SDS011;5969;50.780;7.726;2023-11-19T07:30:05;14.93;;;8.35;;
11823;SDS011;5969;50.780;7.726;2023-11-19T07:32:33;16.65;;;4.20;;
11823;SDS011;5969;50.780;7.726;2023-11-19T07:35:02;17.48;;;4.63;;
11823;SDS011;5969;50.780;7.726;2023-11-19T07:37:37;8.50;;;2.33;;
11823;SDS011;5969;50.780;7.726;2023-11-19T07:49:17;10.10;;;2.80;;
11823;SDS011;5969;50.780;7.726;2023-11-19T07:57:05;7.95;;;2.47;;
11823;SDS011;5969;50.780;7.726;2023-11-19T07:59:33;10.52;;;2.80;;
11823;SDS011;5969;50.780;7.726;2023-11-19T08:02:00;14.43;;;3.30;;
11823;SDS011;5969;50.780;7.726;2023-11-19T08:04:28;11.73;;;2.70;;
11823;SDS011;5969;50.780;7.726;2023-11-19T08:06:55;12.85;;;3.30;;
11823;SDS011;5969;50.780;7.726;2023-11-19T08:09:27;10.88;;;2.80;;
11823;SDS011;5969;50.780;7.726;2023-11-19T08:11:56;12.40;;;2.88;;
11823;SDS011;5969;50.780;7.726;2023-11-19T08:14:25;7.30;;;2.22;;
11823;SDS011;5969;50.780;7.726;2023-11-19T08:16:53;7.70;;;2.40;;
11823;SDS011;5969;50.780;7.726;2023-11-19T08:19:20;12.50;;;2.28;;
11823;SDS011;5969;50.780;7.726;2023-11-19T08:21:56;11.48;;;3.15;;
11823;SDS011;5969;50.780;7.726;2023-11-19T08:24:23;8.10;;;2.40;;
11823;SDS011;5969;50.780;7.726;2023-11-19T08:26:53;10.27;;;2.78;;
11823;SDS011;5969;50.780;7.726;2023-11-19T08:29:26;9.13;;;2.58;;
11823;SDS011;5969;50.780;7.726;2023-11-19T08:34:33;11.68;;;3.15;;
11823;SDS011;5969;50.780;7.726;2023-11-19T08:37:32;10.48;;;2.67;;
11823;SDS011;5969;50.780;7.726;2023-11-19T08:40:16;17.98;;;4.50;;
11823;SDS011;5969;50.780;7.726;2023-11-19T08:42:57;11.55;;;2.95;;
11823;SDS011;5969;50.780;7.726;2023-11-19T08:45:26;13.88;;;3.70;;
11823;SDS011;5969;50.780;7.726;2023-11-19T08:47:56;18.50;;;3.50;;
11823;SDS011;5969;50.780;7.726;2023-11-19T08:50:23;11.60;;;2.97;;
11823;SDS011;5969;50.780;7.726;2023-11-19T08:52:50;12.43;;;2.92;;
11823;SDS011;5969;50.780;7.726;2023-11-19T08:55:18;15.68;;;3.15;;
11823;SDS011;5969;50.780;7.726;2023-11-19T08:57:46;13.45;;;3.92;;
11823;SDS011;5969;50.780;7.726;2023-11-19T09:00:14;16.40;;;3.70;;
11823;SDS011;5969;50.780;7.726;2023-11-19T09:02:42;11.98;;;3.38;;
11823;SDS011;5969;50.780;7.726;2023-11-19T09:05:12;13.77;;;3.03;;
11823;SDS011;5969;50.780;7.726;2023-11-19T09:07:39;16.08;;;3.75;;
11823;SDS011;5969;50.780;7.726;2023-11-19T09:10:06;21.08;;;3.83;;
11823;SDS011;5969;50.780;7.726;2023-11-19T09:12:34;9.75;;;3.20;;
11823;SDS011;5969;50.780;7.726;2023-11-19T09:15:19;13.63;;;3.45;;
11823;SDS011;5969;50.780;7.726;2023-11-19T09:17:47;11.60;;;3.47;;
11823;SDS011;5969;50.780;7.726;2023-11-19T09:20:14;13.63;;;3.15;;
11823;SDS011;5969;50.780;7.726;2023-11-19T09:22:42;12.00;;;3.08;;
11823;SDS011;5969;50.780;7.726;2023-11-19T09:31:12;13.70;;;3.15;;
11823;SDS011;5969;50.780;7.726;2023-11-19T09:33:41;10.13;;;3.25;;
11823;SDS011;5969;50.780;7.726;2023-11-19T09:36:08;17.30;;;3.90;;
11823;SDS011;5969;50.780;7.726;2023-11-19T09:38:35;13.73;;;3.28;;
11823;SDS011;5969;50.780;7.726;2023-11-19T09:41:04;18.33;;;4.10;;
11823;SDS011;5969;50.780;7.726;2023-11-19T09:43:33;17.10;;;3.30;;
11823;SDS011;5969;50.780;7.726;2023-11-19T09:46:01;11.52;;;3.20;;
11823;SDS011;5969;50.780;7.726;2023-11-19T09:48:32;15.52;;;3.92;;
11823;SDS011;5969;50.780;7.726;2023-11-19T09:51:01;14.20;;;3.33;;
11823;SDS011;5969;50.780;7.726;2023-11-19T09:53:29;14.88;;;3.85;;
11823;SDS011;5969;50.780;7.726;2023-11-19T09:55:56;14.30;;;3.30;;
11823;SDS011;5969;50.780;7.726;2023-11-19T09:58:25;15.93;;;3.20;;
11823;SDS011;5969;50.780;7.726;2023-11-19T10:00:52;13.98;;;3.35;;
11823;SDS011;5969;50.780;7.726;2023-11-19T10:03:20;15.45;;;3.58;;
11823;SDS011;5969;50.780;7.726;2023-11-19T10:05:49;17.33;;;3.83;;
11823;SDS011;5969;50.780;7.726;2023-11-19T10:08:18;13.18;;;3.30;;
11823;SDS011;5969;50.780;7.726;2023-11-19T10:10:45;13.77;;;3.63;;
11823;SDS011;5969;50.780;7.726;2023-11-19T10:13:15;14.30;;;3.72;;
11823;SDS011;5969;50.780;7.726;2023-11-19T10:15:42;16.70;;;3.53;;
11823;SDS011;5969;50.780;7.726;2023-11-19T10:18:10;14.32;;;3.45;;
11823;SDS011;5969;50.780;7.726;2023-11-19T10:20:37;14.57;;;3.75;;
11823;SDS011;5969;50.780;7.726;2023-11-19T10:23:04;14.18;;;3.72;;
11823;SDS011;5969;50.780;7.726;2023-11-19T10:25:33;12.93;;;3.72;;
11823;SDS011;5969;50.780;7.726;2023-11-19T10:28:00;13.10;;;3.47;;
11823;SDS011;5969;50.780;7.726;2023-11-19T10:30:29;11.80;;;2.95;;
11823;SDS011;5969;50.780;7.726;2023-11-19T10:33:08;14.38;;;3.60;;
11823;SDS011;5969;50.780;7.726;2023-11-19T10:35:36;13.20;;;3.22;;
11823;SDS011;5969;50.780;7.726;2023-11-19T10:38:13;11.38;;;3.53;;
11823;SDS011;5969;50.780;7.726;2023-11-19T10:40:42;13.57;;;3.13;;
11823;SDS011;5969;50.780;7.726;2023-11-19T10:43:09;18.52;;;4.18;;
11823;SDS011;5969;50.780;7.726;2023-11-19T10:45:37;15.68;;;3.28;;
11823;SDS011;5969;50.780;7.726;2023-11-19T10:48:05;12.07;;;3.47;;
11823;SDS011;5969;50.780;7.726;2023-11-19T10:50:32;17.17;;;4.13;;
11823;SDS011;5969;50.780;7.726;2023-11-19T10:53:00;16.98;;;4.35;;
11823;SDS011;5969;50.780;7.726;2023-11-19T10:55:29;15.50;;;3.95;;
11823;SDS011;5969;50.780;7.726;2023-11-19T10:57:58;16.00;;;3.90;;
11823;SDS011;5969;50.780;7.726;2023-11-19T11:00:27;13.40;;;3.45;;
11823;SDS011;5969;50.780;7.726;2023-11-19T11:03:00;15.30;;;3.30;;
11823;SDS011;5969;50.780;7.726;2023-11-19T11:05:28;10.75;;;3.60;;
11823;SDS011;5969;50.780;7.726;2023-11-19T11:08:02;16.75;;;4.00;;
11823;SDS011;5969;50.780;7.726;2023-11-19T11:10:31;17.58;;;4.32;;
11823;SDS011;5969;50.780;7.726;2023-11-19T11:13:03;15.63;;;4.25;;
11823;SDS011;5969;50.780;7.726;2023-11-19T11:15:32;12.38;;;3.63;;
11823;SDS011;5969;50.780;7.726;2023-11-19T11:18:00;13.48;;;3.35;;
11823;SDS011;5969;50.780;7.726;2023-11-19T11:20:28;13.45;;;3.45;;
11823;SDS011;5969;50.780;7.726;2023-11-19T11:23:01;15.05;;;3.55;;
11823;SDS011;5969;50.780;7.726;2023-11-19T11:25:34;15.55;;;3.70;;
11823;SDS011;5969;50.780;7.726;2023-11-19T11:28:07;14.73;;;3.60;;
11823;SDS011;5969;50.780;7.726;2023-11-19T11:30:40;16.38;;;3.67;;
11823;SDS011;5969;50.780;7.726;2023-11-19T11:33:14;11.30;;;3.03;;
11823;SDS011;5969;50.780;7.726;2023-11-19T11:35:49;16.92;;;3.58;;
11823;SDS011;5969;50.780;7.726;2023-11-19T11:38:21;16.63;;;3.83;;
11823;SDS011;5969;50.780;7.726;2023-11-19T11:43:48;16.10;;;3.83;;
11823;SDS011;5969;50.780;7.726;2023-11-19T11:49:02;10.35;;;3.20;;
11823;SDS011;5969;50.780;7.726;2023-11-19T11:54:25;14.48;;;3.50;;
11823;SDS011;5969;50.780;7.726;2023-11-19T11:57:00;16.20;;;3.83;;
11823;SDS011;5969;50.780;7.726;2023-11-19T11:59:34;14.13;;;3.50;;
11823;SDS011;5969;50.780;7.726;2023-11-19T12:02:10;11.52;;;2.97;;
11823;SDS011;5969;50.780;7.726;2023-11-19T12:04:37;10.23;;;2.83;;
11823;SDS011;5969;50.780;7.726;2023-11-19T12:10:05;11.38;;;3.58;;
11823;SDS011;5969;50.780;7.726;2023-11-19T12:12:33;11.18;;;3.25;;
11823;SDS011;5969;50.780;7.726;2023-11-19T12:15:07;11.20;;;2.80;;
11823;SDS011;5969;50.780;7.726;2023-11-19T12:17:37;13.70;;;3.50;;
11823;SDS011;5969;50.780;7.726;2023-11-19T12:20:05;11.40;;;3.30;;
11823;SDS011;5969;50.780;7.726;2023-11-19T12:22:37;14.98;;;3.40;;
11823;SDS011;5969;50.780;7.726;2023-11-19T12:25:07;9.63;;;2.97;;
11823;SDS011;5969;50.780;7.726;2023-11-19T12:27:39;13.00;;;3.58;;
11823;SDS011;5969;50.780;7.726;2023-11-19T12:30:08;15.18;;;3.80;;
11823;SDS011;5969;50.780;7.726;2023-11-19T12:32:39;11.43;;;3.10;;
11823;SDS011;5969;50.780;7.726;2023-11-19T12:35:06;12.15;;;3.28;;
11823;SDS011;5969;50.780;7.726;2023-11-19T12:37:38;11.70;;;2.90;;
11823;SDS011;5969;50.780;7.726;2023-11-19T12:40:10;11.88;;;3.47;;
11823;SDS011;5969;50.780;7.726;2023-11-19T12:42:38;12.45;;;3.28;;
11823;SDS011;5969;50.780;7.726;2023-11-19T12:45:10;13.00;;;3.10;;
11823;SDS011;5969;50.780;7.726;2023-11-19T12:47:38;7.85;;;2.55;;
11823;SDS011;5969;50.780;7.726;2023-11-19T12:50:06;11.50;;;3.15;;
11823;SDS011;5969;50.780;7.726;2023-11-19T12:52:34;11.52;;;2.88;;
11823;SDS011;5969;50.780;7.726;2023-11-19T12:55:01;10.65;;;2.90;;
11823;SDS011;5969;50.780;7.726;2023-11-19T12:57:39;8.75;;;2.78;;
11823;SDS011;5969;50.780;7.726;2023-11-19T13:00:07;9.48;;;2.67;;
11823;SDS011;5969;50.780;7.726;2023-11-19T13:02:46;7.88;;;2.63;;
11823;SDS011;5969;50.780;7.726;2023-11-19T13:05:20;11.63;;;3.05;;
11823;SDS011;5969;50.780;7.726;2023-11-19T13:07:47;10.90;;;2.97;;
11823;SDS011;5969;50.780;7.726;2023-11-19T13:10:14;15.32;;;3.60;;
11823;SDS011;5969;50.780;7.726;2023-11-19T13:12:42;14.30;;;3.17;;
11823;SDS011;5969;50.780;7.726;2023-11-19T13:15:22;11.85;;;2.78;;
11823;SDS011;5969;50.780;7.726;2023-11-19T13:17:51;11.45;;;2.72;;
11823;SDS011;5969;50.780;7.726;2023-11-19T13:20:18;11.82;;;3.30;;
11823;SDS011;5969;50.780;7.726;2023-11-19T13:22:53;11.25;;;2.97;;
11823;SDS011;5969;50.780;7.726;2023-11-19T13:25:20;13.93;;;2.97;;
11823;SDS011;5969;50.780;7.726;2023-11-19T13:27:47;9.57;;;3.20;;
11823;SDS011;5969;50.780;7.726;2023-11-19T13:30:15;11.15;;;3.30;;
11823;SDS011;5969;50.780;7.726;2023-11-19T13:32:42;15.27;;;3.50;;
11823;SDS011;5969;50.780;7.726;2023-11-19T13:35:12;11.60;;;2.50;;
11823;SDS011;5969;50.780;7.726;2023-11-19T13:37:39;9.32;;;2.63;;
11823;SDS011;5969;50.780;7.726;2023-11-19T13:40:07;9.82;;;2.63;;
11823;SDS011;5969;50.780;7.726;2023-11-19T13:42:35;8.43;;;2.13;;
11823;SDS011;5969;50.780;7.726;2023-11-19T13:45:12;12.02;;;2.90;;
11823;SDS011;5969;50.780;7.726;2023-11-19T13:47:41;10.70;;;2.67;;
11823;SDS011;5969;50.780;7.726;2023-11-19T13:50:17;11.07;;;2.88;;
11823;SDS011;5969;50.780;7.726;2023-11-19T13:52:45;10.65;;;3.30;;
11823;SDS011;5969;50.780;7.726;2023-11-19T13:55:12;7.53;;;2.53;;
11823;SDS011;5969;50.780;7.726;2023-11-19T13:57:41;7.88;;;2.60;;
11823;SDS011;5969;50.780;7.726;2023-11-19T14:00:09;8.82;;;2.88;;
11823;SDS011;5969;50.780;7.726;2023-11-19T14:02:41;11.43;;;2.90;;
11823;SDS011;5969;50.780;7.726;2023-11-19T14:05:14;8.95;;;2.30;;
11823;SDS011;5969;50.780;7.726;2023-11-19T14:07:42;8.55;;;2.47;;
11823;SDS011;5969;50.780;7.726;2023-11-19T14:10:10;11.45;;;3.35;;
11823;SDS011;5969;50.780;7.726;2023-11-19T14:12:37;9.38;;;2.70;;
11823;SDS011;5969;50.780;7.726;2023-11-19T14:15:05;11.98;;;2.58;;
11823;SDS011;5969;50.780;7.726;2023-11-19T14:17:32;7.38;;;2.30;;
11823;SDS011;5969;50.780;7.726;2023-11-19T14:19:59;8.23;;;2.30;;
11823;SDS011;5969;50.780;7.726;2023-11-19T14:22:29;11.35;;;2.70;;
11823;SDS011;5969;50.780;7.726;2023-11-19T14:24:56;8.93;;;2.50;;
11823;SDS011;5969;50.780;7.726;2023-11-19T14:27:24;9.52;;;2.60;;
11823;SDS011;5969;50.780;7.726;2023-11-19T14:29:52;10.02;;;2.42;;
11823;SDS011;5969;50.780;7.726;2023-11-19T14:32:19;11.20;;;2.72;;
11823;SDS011;5969;50.780;7.726;2023-11-19T14:34:46;12.00;;;2.78;;
11823;SDS011;5969;50.780;7.726;2023-11-19T14:37:13;11.73;;;3.05;;
11823;SDS011;5969;50.780;7.726;2023-11-19T14:39:42;8.70;;;2.70;;
11823;SDS011;5969;50.780;7.726;2023-11-19T14:42:09;13.30;;;3.20;;
11823;SDS011;5969;50.780;7.726;2023-11-19T14:44:36;7.22;;;2.63;;
11823;SDS011;5969;50.780;7.726;2023-11-19T14:47:04;11.20;;;2.70;;
11823;SDS011;5969;50.780;7.726;2023-11-19T14:49:31;10.55;;;2.90;;
11823;SDS011;5969;50.780;7.726;2023-11-19T14:51:59;7.07;;;2.30;;
11823;SDS011;5969;50.780;7.726;2023-11-19T14:54:26;8.15;;;2.35;;
11823;SDS011;5969;50.780;7.726;2023-11-19T14:56:54;8.95;;;2.78;;
11823;SDS011;5969;50.780;7.726;2023-11-19T14:59:22;8.23;;;2.40;;
11823;SDS011;5969;50.780;7.726;2023-11-19T15:01:49;13.07;;;3.17;;
11823;SDS011;5969;50.780;7.726;2023-11-19T15:04:16;10.88;;;2.67;;
11823;SDS011;5969;50.780;7.726;2023-11-19T15:06:44;9.43;;;2.55;;
11823;SDS011;5969;50.780;7.726;2023-11-19T15:09:11;9.23;;;2.67;;
11823;SDS011;5969;50.780;7.726;2023-11-19T15:11:41;11.52;;;3.00;;
11823;SDS011;5969;50.780;7.726;2023-11-19T15:14:10;11.88;;;3.40;;
11823;SDS011;5969;50.780;7.726;2023-11-19T15:16:39;8.90;;;2.72;;
11823;SDS011;5969;50.780;7.726;2023-11-19T15:19:07;8.95;;;2.53;;
11823;SDS011;5969;50.780;7.726;2023-11-19T15:21:34;7.97;;;2.58;;
11823;SDS011;5969;50.780;7.726;2023-11-19T15:24:01;12.68;;;2.88;;
11823;SDS011;5969;50.780;7.726;2023-11-19T15:26:32;9.00;;;2.80;;
11823;SDS011;5969;50.780;7.726;2023-11-19T15:28:59;10.90;;;2.90;;
11823;SDS011;5969;50.780;7.726;2023-11-19T15:31:28;12.05;;;2.55;;
11823;SDS011;5969;50.780;7.726;2023-11-19T15:33:55;11.20;;;2.83;;
11823;SDS011;5969;50.780;7.726;2023-11-19T15:36:22;12.40;;;3.05;;
11823;SDS011;5969;50.780;7.726;2023-11-19T15:38:49;7.97;;;2.33;;